Time;durP1;ratioP1;P1;durP2;ratioP2;P2;SDS_P1;SDS_P2;PMS_P1;PMS_P2;Temp;Humidity;BMP_temperature;BMP_pressure;BME280_temperature;BME280_humidity;BME280_pressure;Samples;Min_cycle;Max_cycle;Signal;HPM_P1;HPM_P2
2022/11/28 00:01:01;;;;;;;14.53;9.93;;;8.60;76.00;8.50;96418.00;;;;5046524;28;20397;-85
2022/11/28 00:03:28;;;;;;;11.40;9.43;;;8.60;76.10;8.50;96418.00;;;;5054135;28;20235;-85
2022/11/28 00:05:56;;;;;;;11.73;9.17;;;8.60;76.10;8.50;96420.00;;;;5054552;28;20244;-85
2022/11/28 00:08:24;;;;;;;12.83;9.80;;;8.60;76.10;8.50;96426.00;;;;5055620;28;20276;-87
2022/11/28 00:10:51;;;;;;;14.10;9.83;;;8.70;76.10;8.50;96416.00;;;;5052795;28;20595;-86
2022/11/28 00:13:19;;;;;;;11.70;9.40;;;8.60;76.00;8.50;96415.00;;;;5052822;28;20222;-84
2022/11/28 00:15:54;;;;;;;12.23;9.87;;;8.60;75.80;8.50;96406.00;;;;5053496;28;20231;-85
2022/11/28 00:18:21;;;;;;;11.43;9.33;;;8.60;75.90;8.50;96406.00;;;;5055978;28;20200;-86
2022/11/28 00:20:48;;;;;;;12.97;8.97;;;8.60;75.80;8.40;96397.00;;;;5055336;28;20204;-85
2022/11/28 00:23:15;;;;;;;9.93;8.37;;;8.60;75.70;8.40;96396.00;;;;5053840;28;20616;-87
2022/11/28 00:25:44;;;;;;;11.27;9.20;;;8.60;75.70;8.40;96401.00;;;;5054858;28;20304;-84
2022/11/28 00:28:11;;;;;;;11.13;8.60;;;8.60;75.70;8.40;96391.00;;;;5054715;28;20223;-86
2022/11/28 00:30:39;;;;;;;9.40;8.17;;;8.60;75.70;8.40;96391.00;;;;5055114;28;20288;-85
2022/11/28 00:33:06;;;;;;;10.80;8.57;;;8.60;75.60;8.40;96390.00;;;;5054200;28;20239;-85
2022/11/28 00:35:33;;;;;;;10.03;7.97;;;8.60;75.70;8.40;96389.00;;;;5052861;28;20270;-85
2022/11/28 00:38:00;;;;;;;11.20;8.50;;;8.60;75.70;8.40;96389.00;;;;5055032;28;20220;-85
2022/11/28 00:40:27;;;;;;;10.60;8.57;;;8.60;75.70;8.40;96387.00;;;;5054824;28;20279;-85
2022/11/28 00:42:56;;;;;;;9.93;8.23;;;8.50;75.60;8.40;96379.00;;;;5055997;28;20289;-86
2022/11/28 00:45:23;;;;;;;11.17;8.57;;;8.60;75.60;8.40;96375.00;;;;5055666;28;20246;-86
2022/11/28 00:47:51;;;;;;;10.80;8.70;;;8.50;75.30;8.30;96379.00;;;;5055431;28;20251;-85
2022/11/28 00:50:18;;;;;;;10.23;8.53;;;8.50;75.20;8.30;96378.00;;;;5056027;28;20554;-84
2022/11/28 00:52:45;;;;;;;9.27;8.23;;;8.50;75.20;8.30;96368.00;;;;5056074;28;20236;-85
2022/11/28 00:55:12;;;;;;;10.50;8.47;;;8.50;75.10;8.30;96378.00;;;;5055652;28;20196;-86
2022/11/28 00:57:40;;;;;;;13.47;8.37;;;8.50;75.30;8.30;96388.00;;;;5054828;28;20221;-85
2022/11/28 01:00:10;;;;;;;11.40;8.80;;;8.50;75.30;8.30;96387.00;;;;5055675;28;20196;-86
2022/11/28 01:02:37;;;;;;;10.53;8.23;;;8.50;75.30;8.30;96384.00;;;;5055596;28;20652;-85
2022/11/28 01:05:06;;;;;;;10.87;8.57;;;8.50;75.30;8.30;96378.00;;;;5055819;28;20250;-85
2022/11/28 01:07:33;;;;;;;12.57;9.43;;;8.50;75.30;8.30;96370.00;;;;5055555;28;20632;-86
2022/11/28 01:10:01;;;;;;;11.93;8.70;;;8.50;75.40;8.30;96376.00;;;;5054953;28;20258;-86
2022/11/28 01:12:28;;;;;;;12.27;9.33;;;8.50;75.40;8.30;96372.00;;;;5054901;28;20302;-85
2022/11/28 01:14:57;;;;;;;12.93;9.43;;;8.50;75.50;8.30;96370.00;;;;5054994;28;20293;-85
2022/11/28 01:17:25;;;;;;;11.73;9.37;;;8.50;75.60;8.30;96364.00;;;;5055290;28;20225;-86
2022/11/28 01:19:52;;;;;;;11.80;9.20;;;8.50;75.60;8.30;96366.00;;;;5055162;28;20231;-86
2022/11/28 01:22:20;;;;;;;11.00;9.20;;;8.50;75.50;8.30;96369.00;;;;5055307;28;20247;-86
2022/11/28 01:24:47;;;;;;;11.50;8.77;;;8.50;75.50;8.30;96359.00;;;;5055052;28;20247;-86
2022/11/28 01:27:14;;;;;;;11.73;9.37;;;8.50;75.20;8.30;96356.00;;;;5055083;28;20299;-83
2022/11/28 01:29:41;;;;;;;12.17;9.07;;;8.50;75.30;8.30;96357.00;;;;5055807;28;20689;-86
2022/11/28 01:32:08;;;;;;;11.67;9.60;;;8.50;75.40;8.30;96349.00;;;;5055002;28;20232;-86
2022/11/28 01:34:37;;;;;;;11.80;8.77;;;8.50;75.40;8.30;96346.00;;;;5055309;28;20232;-85
2022/11/28 01:37:04;;;;;;;10.80;8.57;;;8.50;75.50;8.30;96341.00;;;;5054855;28;20288;-86
2022/11/28 01:39:32;;;;;;;10.87;9.17;;;8.50;75.60;8.30;96346.00;;;;5054852;28;20232;-86
2022/11/28 01:41:59;;;;;;;11.17;9.27;;;8.50;75.50;8.30;96349.00;;;;5054795;28;20185;-86
2022/11/28 01:45:11;;;;;;;11.40;9.00;;;8.50;75.30;8.30;96346.00;;;;5054766;28;20284;-86
2022/11/28 01:47:39;;;;;;;10.87;8.27;;;8.50;75.30;8.20;96334.00;;;;5054683;28;20252;-86
2022/11/28 01:50:10;;;;;;;13.63;9.57;;;8.50;75.50;8.30;96330.00;;;;5054846;28;20200;-86
2022/11/28 01:52:42;;;;;;;10.93;8.97;;;8.40;75.40;8.20;96324.00;;;;5054794;28;20206;-86
2022/11/28 01:55:14;;;;;;;12.57;9.03;;;8.50;75.60;8.20;96315.00;;;;5054898;28;20618;-86
2022/11/28 01:57:43;;;;;;;10.13;8.57;;;8.50;75.70;8.30;96309.00;;;;5054473;28;20227;-86
2022/11/28 02:00:15;;;;;;;16.03;10.83;;;8.40;75.60;8.20;96302.00;;;;5054032;28;20236;-87
2022/11/28 02:02:48;;;;;;;15.30;9.50;;;8.40;75.60;8.30;96304.00;;;;5054714;28;20193;-86
2022/11/28 02:05:19;;;;;;;14.73;9.00;;;8.40;75.60;8.30;96298.00;;;;5054353;28;20268;-86
2022/11/28 02:07:48;;;;;;;10.30;8.30;;;8.50;75.60;8.30;96303.00;;;;5054245;28;20197;-86
2022/11/28 02:10:21;;;;;;;12.13;9.23;;;8.40;75.50;8.30;96308.00;;;;5052674;28;20224;-86
2022/11/28 02:13:19;;;;;;;11.13;8.43;;;8.50;75.60;8.30;96313.00;;;;5054335;28;20594;-86
2022/11/28 02:16:09;;;;;;;12.27;8.30;;;8.50;75.60;8.30;96317.00;;;;5054180;28;20330;-86
2022/11/28 02:18:58;;;;;;;10.83;8.40;;;8.50;75.70;8.30;96316.00;;;;5053899;28;20244;-86
2022/11/28 02:21:43;;;;;;;11.70;8.80;;;8.50;75.60;8.30;96324.00;;;;5054040;28;20271;-86
2022/11/28 02:25:04;;;;;;;12.13;8.70;;;8.50;75.60;8.30;96332.00;;;;5053910;28;20192;-86
2022/11/28 02:28:16;;;;;;;11.63;8.37;;;8.50;75.50;8.30;96340.00;;;;5037879;28;20244;-86
2022/11/28 02:30:57;;;;;;;13.37;9.00;;;8.50;75.40;8.30;96346.00;;;;5053570;28;20216;-86
2022/11/28 02:33:31;;;;;;;12.33;8.93;;;8.50;75.50;8.30;96356.00;;;;5053200;28;20212;-86
2022/11/28 02:36:10;;;;;;;11.60;9.20;;;8.50;75.60;8.30;96338.00;;;;5053391;28;20270;-86
2022/11/28 02:38:56;;;;;;;11.00;8.63;;;8.50;75.80;8.30;96348.00;;;;5053443;28;20285;-84
2022/11/28 02:41:34;;;;;;;12.00;8.83;;;8.50;75.80;8.30;96346.00;;;;5048006;28;20187;-85
2022/11/28 02:44:13;;;;;;;10.60;8.90;;;8.50;75.80;8.30;96333.00;;;;5054129;28;20185;-85
2022/11/28 02:46:52;;;;;;;12.73;8.50;;;8.50;75.70;8.30;96333.00;;;;5053943;28;20242;-85
2022/11/28 02:49:29;;;;;;;10.83;8.77;;;8.50;75.80;8.30;96317.00;;;;5054047;28;20204;-85
2022/11/28 02:52:04;;;;;;;11.80;8.60;;;8.50;75.90;8.40;96308.00;;;;5053597;28;20216;-85
2022/11/28 02:54:32;;;;;;;12.47;9.50;;;8.50;75.90;8.40;96303.00;;;;5054061;28;20196;-85
2022/11/28 02:57:01;;;;;;;14.70;10.27;;;8.50;75.90;8.40;96296.00;;;;5053713;28;20278;-85
2022/11/28 02:59:45;;;;;;;12.27;9.27;;;8.50;75.90;8.40;96281.00;;;;5053935;28;20677;-85
2022/11/28 03:02:18;;;;;;;12.33;9.67;;;8.50;75.80;8.40;96277.00;;;;5053261;28;20263;-85
2022/11/28 03:04:57;;;;;;;12.17;9.80;;;8.50;75.80;8.40;96284.00;;;;5053939;28;20272;-85
2022/11/28 03:07:45;;;;;;;14.50;10.60;;;8.60;75.80;8.40;96285.00;;;;5053638;28;20223;-85
2022/11/28 03:10:24;;;;;;;13.00;10.17;;;8.60;75.80;8.40;96269.00;;;;5052861;28;20275;-85
2022/11/28 03:13:06;;;;;;;15.10;9.47;;;8.60;75.80;8.40;96262.00;;;;5052911;28;20185;-85
2022/11/28 03:15:44;;;;;;;12.37;9.33;;;8.60;75.90;8.40;96257.00;;;;5052799;28;20212;-85
2022/11/28 03:18:21;;;;;;;14.10;10.23;;;8.60;75.90;8.40;96274.00;;;;5053189;28;20219;-85
2022/11/28 03:20:56;;;;;;;16.37;9.67;;;8.60;75.90;8.40;96278.00;;;;5054915;28;20633;-85
2022/11/28 03:23:36;;;;;;;15.00;10.30;;;8.60;75.90;8.40;96266.00;;;;5057548;28;20708;-85
2022/11/28 03:26:11;;;;;;;14.13;10.27;;;8.60;75.80;8.40;96269.00;;;;5057173;28;20274;-85
2022/11/28 03:28:50;;;;;;;12.60;9.87;;;8.60;75.70;8.40;96267.00;;;;5057661;28;20697;-85
2022/11/28 03:31:22;;;;;;;12.77;9.93;;;8.60;75.70;8.40;96261.00;;;;5057312;28;20235;-86
2022/11/28 03:33:54;;;;;;;13.33;10.10;;;8.60;75.80;8.40;96266.00;;;;5057468;28;20216;-86
2022/11/28 03:36:28;;;;;;;14.70;10.30;;;8.60;75.80;8.40;96263.00;;;;5056894;28;20307;-85
2022/11/28 03:39:02;;;;;;;13.10;10.10;;;8.60;75.70;8.40;96258.00;;;;5056587;28;20204;-86
2022/11/28 03:41:36;;;;;;;12.90;10.00;;;8.60;76.50;8.40;96264.00;;;;5057295;28;20184;-86
2022/11/28 03:44:09;;;;;;;15.40;10.57;;;8.60;75.70;8.40;96269.00;;;;5056685;28;20282;-86
2022/11/28 03:46:43;;;;;;;15.13;11.17;;;8.60;75.60;8.40;96271.00;;;;5057264;28;20224;-86
2022/11/28 03:49:16;;;;;;;14.67;10.97;;;8.60;75.50;8.40;96266.00;;;;5056644;28;20238;-86
2022/11/28 03:51:53;;;;;;;16.53;11.53;;;8.60;75.40;8.30;96260.00;;;;5056535;28;20593;-86
2022/11/28 03:54:25;;;;;;;15.47;11.03;;;8.60;75.40;8.40;96262.00;;;;5056495;28;20184;-85
2022/11/28 03:57:00;;;;;;;16.63;11.33;;;8.50;75.30;8.30;96252.00;;;;5056789;28;20216;-86
2022/11/28 03:59:34;;;;;;;15.10;11.17;;;8.50;75.30;8.30;96252.00;;;;5056728;28;20250;-86
2022/11/28 04:02:14;;;;;;;15.13;11.03;;;8.50;75.30;8.30;96241.00;;;;5056724;28;20184;-85
2022/11/28 04:04:51;;;;;;;15.00;11.33;;;8.60;75.50;8.30;96237.00;;;;5056791;28;20189;-86
2022/11/28 04:07:31;;;;;;;16.00;10.47;;;8.60;75.50;8.30;96218.00;;;;5056637;28;20315;-86
2022/11/28 04:10:08;;;;;;;14.20;10.37;;;8.60;75.50;8.40;96221.00;;;;5056677;28;20215;-86
2022/11/28 04:12:51;;;;;;;14.20;10.40;;;8.50;75.50;8.40;96205.00;;;;5056067;28;20195;-86
2022/11/28 04:15:30;;;;;;;13.93;10.37;;;8.60;75.60;8.40;96212.00;;;;5056304;28;20227;-86
2022/11/28 04:18:11;;;;;;;13.07;10.07;;;8.50;75.60;8.40;96212.00;;;;5056087;28;20201;-86
2022/11/28 04:20:47;;;;;;;12.97;10.37;;;8.50;75.50;8.30;96218.00;;;;5050551;28;20243;-82
2022/11/28 04:23:21;;;;;;;16.87;10.60;;;8.50;75.40;8.30;96213.00;;;;5049712;28;20856;-82
2022/11/28 04:25:54;;;;;;;13.87;10.40;;;8.50;75.50;8.40;96213.00;;;;5048706;28;20243;-81
2022/11/28 04:28:27;;;;;;;14.70;10.87;;;8.50;75.50;8.30;96208.00;;;;5049142;28;20247;-82
2022/11/28 04:31:00;;;;;;;14.37;10.73;;;8.50;75.40;8.30;96197.00;;;;5048823;28;20287;-82
2022/11/28 04:33:33;;;;;;;12.70;9.93;;;8.50;75.50;8.30;96203.00;;;;5044340;28;20522;-82
2022/11/28 04:36:03;;;;;;;16.03;11.03;;;8.50;75.60;8.40;96203.00;;;;5046540;28;20224;-80
2022/11/28 04:38:34;;;;;;;14.57;10.77;;;8.50;75.60;8.40;96195.00;;;;5044340;28;20270;-80
2022/11/28 04:41:08;;;;;;;14.40;10.60;;;8.50;75.50;8.30;96199.00;;;;5049489;28;20262;-81
2022/11/28 04:43:41;;;;;;;13.83;10.43;;;8.50;75.30;8.40;96204.00;;;;5047501;28;20226;-81
2022/11/28 04:46:14;;;;;;;15.23;10.60;;;8.60;75.50;8.40;96196.00;;;;5050623;28;20417;-81
2022/11/28 04:48:42;;;;;;;14.47;10.37;;;8.50;75.40;8.40;96197.00;;;;5044743;28;20209;-81
2022/11/28 04:51:20;;;;;;;12.33;10.03;;;8.50;75.40;8.30;96203.00;;;;5046215;28;20297;-81
2022/11/28 04:54:00;;;;;;;14.70;10.27;;;8.50;75.50;8.30;96205.00;;;;5044902;28;20236;-81
2022/11/28 04:56:36;;;;;;;12.27;9.97;;;8.50;75.60;8.30;96199.00;;;;5051087;28;20599;-81
2022/11/28 04:59:06;;;;;;;14.10;9.73;;;8.50;75.60;8.30;96199.00;;;;5043411;28;20390;-81
2022/11/28 05:01:35;;;;;;;14.00;10.53;;;8.50;75.70;8.40;96199.00;;;;5048752;28;20275;-81
2022/11/28 05:04:02;;;;;;;14.97;11.13;;;8.50;75.60;8.30;96209.00;;;;5049929;28;20216;-81
2022/11/28 05:06:35;;;;;;;16.83;10.70;;;8.50;75.70;8.40;96212.00;;;;5048035;28;20286;-81
2022/11/28 05:09:05;;;;;;;15.07;11.60;;;8.50;75.80;8.40;96219.00;;;;5043327;28;20232;-81
2022/11/28 05:11:32;;;;;;;14.47;9.87;;;8.50;75.70;8.30;96214.00;;;;5049652;28;20308;-80
2022/11/28 05:13:59;;;;;;;13.43;9.90;;;8.50;75.70;8.30;96198.00;;;;5046620;28;20201;-80
2022/11/28 05:16:26;;;;;;;14.53;10.23;;;8.50;75.50;8.30;96197.00;;;;5046468;28;20883;-82
2022/11/28 05:18:54;;;;;;;14.40;10.70;;;8.50;75.50;8.30;96199.00;;;;5041289;28;20244;-82
2022/11/28 05:21:21;;;;;;;12.07;10.07;;;8.50;75.50;8.30;96217.00;;;;5042264;28;20223;-81
2022/11/28 05:23:49;;;;;;;16.17;9.90;;;8.50;75.60;8.30;96207.00;;;;5047804;28;20269;-82
2022/11/28 05:26:20;;;;;;;12.77;9.73;;;8.50;75.70;8.30;96219.00;;;;5046086;28;20358;-82
2022/11/28 05:28:50;;;;;;;12.97;9.00;;;8.50;75.50;8.30;96227.00;;;;5048132;28;20224;-81
2022/11/28 05:31:19;;;;;;;10.97;9.30;;;8.50;75.50;8.30;96206.00;;;;5043323;28;20228;-81
2022/11/28 05:33:46;;;;;;;13.67;9.57;;;8.50;75.70;8.30;96200.00;;;;5040814;28;20209;-81
2022/11/28 05:36:16;;;;;;;13.27;10.57;;;8.50;75.60;8.30;96190.00;;;;5045623;28;20280;-81
2022/11/28 05:38:45;;;;;;;13.73;10.63;;;8.50;75.60;8.30;96213.00;;;;5046266;28;20733;-81
2022/11/28 05:41:21;;;;;;;14.23;10.23;;;8.50;75.50;8.30;96229.00;;;;5047376;28;20278;-81
2022/11/28 05:43:48;;;;;;;14.97;10.53;;;8.50;75.60;8.30;96222.00;;;;5041962;28;20655;-79
2022/11/28 05:46:16;;;;;;;16.37;10.07;;;8.50;75.70;8.30;96222.00;;;;5043378;28;20315;-81
2022/11/28 05:48:43;;;;;;;12.40;9.43;;;8.50;75.60;8.30;96239.00;;;;5045966;28;20283;-81
2022/11/28 05:51:10;;;;;;;11.63;9.57;;;8.50;75.50;8.30;96231.00;;;;5047160;28;20243;-80
2022/11/28 05:53:37;;;;;;;12.83;10.40;;;8.50;75.60;8.30;96212.00;;;;5043414;28;20631;-80
2022/11/28 05:56:09;;;;;;;14.47;10.90;;;8.50;75.60;8.30;96206.00;;;;5043315;28;20282;-82
2022/11/28 05:58:39;;;;;;;12.67;9.97;;;8.50;75.30;8.30;96212.00;;;;5047614;28;20602;-81
2022/11/28 06:01:11;;;;;;;13.67;10.00;;;8.50;75.30;8.30;96200.00;;;;5040751;28;20493;-81
2022/11/28 06:03:38;;;;;;;13.83;9.83;;;8.50;75.40;8.30;96196.00;;;;5044017;28;20724;-82
2022/11/28 06:06:12;;;;;;;13.97;9.93;;;8.50;75.50;8.30;96198.00;;;;5043103;28;20224;-80
2022/11/28 06:08:39;;;;;;;14.70;9.83;;;8.50;75.40;8.30;96190.00;;;;5043168;28;20217;-81
2022/11/28 06:11:07;;;;;;;15.17;10.33;;;8.50;75.40;8.30;96205.00;;;;5042798;28;20685;-82
2022/11/28 06:13:34;;;;;;;13.10;10.77;;;8.50;75.30;8.30;96204.00;;;;5046132;28;20209;-81
2022/11/28 06:16:06;;;;;;;11.93;9.33;;;8.50;75.40;8.20;96198.00;;;;5046266;28;20834;-81
2022/11/28 06:18:34;;;;;;;13.67;9.63;;;8.50;75.20;8.30;96204.00;;;;5049023;28;20248;-80
2022/11/28 06:21:02;;;;;;;14.03;10.87;;;8.50;75.30;8.20;96195.00;;;;5047248;28;20204;-82
2022/11/28 06:23:30;;;;;;;13.40;9.83;;;8.40;75.30;8.30;96197.00;;;;5046251;28;20204;-81
2022/11/28 06:25:58;;;;;;;12.90;10.10;;;8.50;75.30;8.20;96204.00;;;;5048855;28;20238;-82
2022/11/28 06:28:25;;;;;;;15.47;9.90;;;8.40;75.50;8.30;96194.00;;;;5042937;28;20240;-81
2022/11/28 06:30:52;;;;;;;13.97;10.73;;;8.50;75.50;8.30;96194.00;;;;5048304;28;20197;-81
2022/11/28 06:33:21;;;;;;;16.60;10.70;;;8.40;75.50;8.30;96193.00;;;;5056164;28;20201;-83
2022/11/28 06:35:48;;;;;;;14.57;10.97;;;8.40;75.60;8.30;96176.00;;;;5055744;28;20307;-83
2022/11/28 06:38:15;;;;;;;16.40;10.73;;;8.50;75.60;8.40;96172.00;;;;5054973;28;20255;-83
2022/11/28 06:40:42;;;;;;;17.20;10.43;;;8.50;75.50;8.40;96175.00;;;;5054905;28;20212;-84
2022/11/28 06:43:09;;;;;;;13.87;11.03;;;8.50;75.60;8.40;96161.00;;;;5053993;28;20254;-84
2022/11/28 06:45:37;;;;;;;12.93;10.30;;;8.50;75.50;8.50;96172.00;;;;5053764;28;20216;-83
2022/11/28 06:48:04;;;;;;;13.27;9.50;;;8.50;75.70;8.50;96143.00;;;;5054530;28;20284;-83
2022/11/28 06:50:34;;;;;;;30.17;20.23;;;8.50;75.70;8.50;96155.00;;;;5054292;28;20200;-83
2022/11/28 06:53:01;;;;;;;13.60;10.13;;;8.50;75.60;8.50;96158.00;;;;5054282;28;20239;-83
2022/11/28 06:55:30;;;;;;;13.30;10.50;;;8.50;75.70;8.50;96149.00;;;;5056885;28;20188;-83
2022/11/28 06:57:57;;;;;;;12.93;9.03;;;8.50;75.50;8.50;96163.00;;;;5065867;28;20637;-83
2022/11/28 07:00:25;;;;;;;19.90;10.90;;;8.60;75.60;8.50;96167.00;;;;5054050;28;20227;-83
2022/11/28 07:02:52;;;;;;;14.30;10.83;;;8.50;75.50;8.50;96161.00;;;;5053592;28;20225;-84
2022/11/28 07:05:21;;;;;;;13.83;10.03;;;8.60;75.50;8.50;96172.00;;;;5054443;28;20251;-81
2022/11/28 07:07:56;;;;;;;13.73;10.47;;;8.50;75.20;8.50;96155.00;;;;5051204;28;20192;-83
2022/11/28 07:10:24;;;;;;;13.77;10.73;;;8.60;75.20;8.50;96151.00;;;;5046044;28;20232;-81
2022/11/28 07:12:54;;;;;;;14.43;10.93;;;8.60;75.40;8.50;96171.00;;;;5045040;28;20207;-82
2022/11/28 07:15:22;;;;;;;12.90;10.40;;;8.60;75.50;8.50;96149.00;;;;5045278;28;20197;-81
2022/11/28 07:17:50;;;;;;;15.20;11.60;;;8.60;75.30;8.50;96160.00;;;;5040990;28;20198;-83
2022/11/28 07:20:17;;;;;;;12.60;10.17;;;8.60;75.20;8.50;96188.00;;;;5045022;28;20255;-82
2022/11/28 07:22:47;;;;;;;13.60;10.13;;;8.60;75.30;8.50;96205.00;;;;5045359;28;20280;-83
2022/11/28 07:25:16;;;;;;;14.20;10.50;;;8.60;75.20;8.50;96204.00;;;;5049360;28;20216;-82
2022/11/28 07:27:43;;;;;;;15.47;11.37;;;8.60;75.30;8.50;96192.00;;;;5051554;28;20246;-82
2022/11/28 07:30:11;;;;;;;15.17;11.27;;;8.60;75.30;8.50;96197.00;;;;5048894;28;20219;-82
2022/11/28 07:32:40;;;;;;;21.13;11.30;;;8.60;75.30;8.50;96195.00;;;;5044045;28;20201;-82
2022/11/28 07:35:08;;;;;;;14.03;10.43;;;8.60;75.40;8.60;96195.00;;;;5043615;28;20626;-83
2022/11/28 07:37:36;;;;;;;17.90;11.33;;;8.60;75.30;8.60;96202.00;;;;5047086;28;20693;-83
2022/11/28 07:40:05;;;;;;;15.17;10.27;;;8.60;75.30;8.60;96198.00;;;;5045574;28;20320;-81
2022/11/28 07:42:36;;;;;;;14.73;10.53;;;8.60;75.40;8.60;96206.00;;;;5054179;28;20208;-82
2022/11/28 07:45:05;;;;;;;15.93;10.67;;;8.60;75.20;8.60;96195.00;;;;5049187;28;20209;-82
2022/11/28 07:47:34;;;;;;;15.10;10.67;;;8.70;75.20;8.60;96192.00;;;;5045649;28;20844;-81
2022/11/28 07:50:01;;;;;;;14.90;10.97;;;8.70;75.30;8.70;96200.00;;;;5046463;28;20212;-84
2022/11/28 07:52:28;;;;;;;14.87;11.30;;;8.70;75.50;8.70;96169.00;;;;5046862;28;20207;-82
2022/11/28 07:54:56;;;;;;;16.70;11.83;;;8.70;75.50;8.70;96181.00;;;;5046759;28;20197;-84
2022/11/28 07:57:23;;;;;;;15.93;11.10;;;8.70;75.30;8.70;96165.00;;;;5044756;28;21268;-84
2022/11/28 07:59:52;;;;;;;13.80;10.57;;;8.70;75.20;8.70;96152.00;;;;5046663;28;20782;-83
2022/11/28 08:02:19;;;;;;;14.50;10.57;;;8.70;75.20;8.80;96141.00;;;;5046286;28;20287;-82
2022/11/28 08:04:46;;;;;;;14.40;10.73;;;8.80;75.30;8.80;96146.00;;;;5043102;28;20308;-83
2022/11/28 08:07:14;;;;;;;14.10;10.77;;;8.80;75.30;8.80;96141.00;;;;5043709;28;20413;-83
2022/11/28 08:09:41;;;;;;;12.97;10.47;;;8.80;75.30;8.80;96118.00;;;;5044961;28;20205;-82
2022/11/28 08:12:08;;;;;;;16.07;10.03;;;8.80;75.10;8.80;96121.00;;;;5041793;28;20237;-83
2022/11/28 08:14:35;;;;;;;14.90;9.67;;;8.80;75.10;8.80;96124.00;;;;5040185;28;20369;-83
2022/11/28 08:17:04;;;;;;;14.73;10.70;;;8.80;75.00;8.70;96138.00;;;;5045913;28;20311;-82
2022/11/28 08:19:31;;;;;;;18.13;10.27;;;8.80;74.80;8.70;96153.00;;;;5047235;28;20308;-82
2022/11/28 08:21:58;;;;;;;14.80;10.03;;;8.80;74.70;8.70;96169.00;;;;5049395;28;20639;-83
2022/11/28 08:24:26;;;;;;;14.57;10.73;;;8.80;74.90;8.80;96186.00;;;;5048400;28;20358;-82
2022/11/28 08:26:53;;;;;;;15.77;9.30;;;8.80;75.00;8.80;96198.00;;;;5050079;28;20224;-82
2022/11/28 08:29:21;;;;;;;22.27;10.37;;;8.80;74.90;8.80;96202.00;;;;5048034;28;20292;-81
2022/11/28 08:31:48;;;;;;;13.10;10.13;;;8.80;74.90;8.80;96203.00;;;;5048017;28;20631;-82
2022/11/28 08:34:17;;;;;;;16.70;10.60;;;8.80;75.00;8.90;96198.00;;;;5046662;28;20231;-82
2022/11/28 08:36:46;;;;;;;12.37;9.70;;;8.90;75.30;8.90;96196.00;;;;5045812;28;20777;-83
2022/11/28 08:39:13;;;;;;;12.70;9.70;;;8.90;75.40;8.90;96184.00;;;;5045735;28;20274;-82
2022/11/28 08:41:41;;;;;;;25.93;10.60;;;8.90;75.30;8.90;96186.00;;;;5048809;28;20212;-81
2022/11/28 08:44:08;;;;;;;13.13;9.97;;;8.90;75.20;9.00;96174.00;;;;5047957;28;20592;-82
2022/11/28 08:46:36;;;;;;;13.23;10.10;;;9.00;75.30;9.00;96175.00;;;;5047012;28;20243;-82
2022/11/28 08:49:03;;;;;;;16.40;10.20;;;9.00;75.40;9.00;96184.00;;;;5048534;28;20232;-82
2022/11/28 08:51:32;;;;;;;13.10;9.53;;;9.00;75.30;9.00;96183.00;;;;5047700;28;20224;-82
2022/11/28 08:53:59;;;;;;;12.93;10.03;;;9.00;75.50;9.10;96185.00;;;;5044165;28;20283;-82
2022/11/28 08:56:26;;;;;;;11.43;9.37;;;9.00;75.30;9.10;96181.00;;;;5049816;28;20316;-83
2022/11/28 08:58:54;;;;;;;12.30;9.70;;;9.10;75.40;9.20;96160.00;;;;5049315;28;20236;-82
2022/11/28 09:01:24;;;;;;;13.73;9.90;;;9.10;75.10;9.20;96169.00;;;;5046059;28;20262;-82
2022/11/28 09:03:53;;;;;;;12.33;8.83;;;9.10;75.00;9.20;96174.00;;;;5048392;28;20211;-82
2022/11/28 09:06:22;;;;;;;13.10;9.60;;;9.20;75.10;9.30;96180.00;;;;5048382;28;20693;-82
2022/11/28 09:08:51;;;;;;;13.67;9.93;;;9.20;75.10;9.30;96191.00;;;;5048302;28;20579;-82
2022/11/28 09:11:22;;;;;;;12.67;9.43;;;9.20;74.90;9.30;96192.00;;;;5047434;28;20232;-82
2022/11/28 09:13:50;;;;;;;12.53;9.07;;;9.20;75.00;9.30;96205.00;;;;5047666;28;20574;-82
2022/11/28 09:16:18;;;;;;;12.20;8.70;;;9.20;75.00;9.40;96193.00;;;;5047885;28;20260;-82
2022/11/28 09:18:45;;;;;;;13.60;10.20;;;9.30;75.10;9.40;96192.00;;;;5047068;28;20297;-82
2022/11/28 09:21:14;;;;;;;13.50;9.40;;;9.20;75.00;9.40;96177.00;;;;5047257;28;20304;-82
2022/11/28 09:23:44;;;;;;;12.60;9.13;;;9.30;75.10;9.40;96163.00;;;;5047214;28;20812;-82
2022/11/28 09:26:15;;;;;;;11.67;9.40;;;9.30;74.90;9.50;96155.00;;;;5046859;28;20324;-82
2022/11/28 09:28:48;;;;;;;10.63;8.90;;;9.40;75.10;9.50;96168.00;;;;5046217;28;20300;-82
2022/11/28 09:31:23;;;;;;;11.53;9.37;;;9.40;75.00;9.50;96166.00;;;;5047203;28;20205;-82
2022/11/28 09:33:53;;;;;;;11.87;9.50;;;9.40;75.10;9.50;96176.00;;;;5045678;28;20267;-82
2022/11/28 09:36:22;;;;;;;14.00;9.57;;;9.50;74.90;9.60;96179.00;;;;5043773;28;20252;-82
2022/11/28 09:38:51;;;;;;;11.57;9.73;;;9.50;74.80;9.60;96176.00;;;;5045553;28;20291;-82
2022/11/28 09:41:43;;;;;;;12.43;9.57;;;9.50;74.80;9.60;96170.00;;;;5043643;28;20232;-83
2022/11/28 09:44:20;;;;;;;10.70;8.40;;;9.60;74.60;9.70;96177.00;;;;5037359;28;20259;-82
2022/11/28 09:46:51;;;;;;;12.93;8.63;;;9.60;74.70;9.70;96164.00;;;;5044289;28;20673;-82
2022/11/28 09:49:35;;;;;;;13.73;10.33;;;9.60;74.80;9.80;96173.00;;;;5042696;28;20277;-82
2022/11/28 09:52:16;;;;;;;10.03;8.27;;;9.70;74.70;9.80;96170.00;;;;5046614;28;20193;-81
2022/11/28 09:54:51;;;;;;;11.77;8.73;;;9.70;74.80;9.90;96180.00;;;;5045057;28;20201;-82
2022/11/28 09:57:32;;;;;;;9.37;8.33;;;9.70;74.80;9.90;96183.00;;;;5046564;28;20320;-82
2022/11/28 10:00:00;;;;;;;14.00;9.13;;;9.80;74.70;9.90;96170.00;;;;5042498;28;20221;-82
2022/11/28 10:02:35;;;;;;;11.53;9.43;;;9.80;74.60;10.00;96177.00;;;;5043121;28;20205;-82
2022/11/28 10:05:20;;;;;;;10.10;8.27;;;9.80;74.10;10.00;96174.00;;;;5045356;28;20196;-82
2022/11/28 10:08:09;;;;;;;10.67;8.87;;;9.90;73.70;10.00;96168.00;;;;5046099;28;20232;-82
2022/11/28 10:10:55;;;;;;;10.57;8.10;;;9.90;73.30;10.00;96169.00;;;;5038075;28;20739;-82
2022/11/28 10:13:41;;;;;;;11.07;8.23;;;9.90;73.20;10.10;96172.00;;;;5046165;28;20653;-82
2022/11/28 10:16:18;;;;;;;9.23;8.07;;;9.90;73.50;10.10;96164.00;;;;5037472;28;20468;-82
2022/11/28 10:18:51;;;;;;;10.50;8.50;;;10.00;73.70;10.10;96161.00;;;;5043157;28;20242;-81
2022/11/28 10:21:30;;;;;;;10.70;8.70;;;10.00;73.50;10.10;96157.00;;;;5037670;28;20236;-82
2022/11/28 10:24:04;;;;;;;11.60;8.63;;;10.00;73.60;10.20;96162.00;;;;5045243;28;20208;-82
2022/11/28 10:26:37;;;;;;;10.17;8.07;;;10.10;73.80;10.20;96159.00;;;;5044845;28;20228;-82
2022/11/28 10:29:22;;;;;;;11.17;8.73;;;10.10;73.70;10.20;96159.00;;;;5044906;28;20229;-82
2022/11/28 10:31:54;;;;;;;10.70;8.70;;;10.10;73.40;10.30;96156.00;;;;5045692;28;20768;-82
2022/11/28 10:34:29;;;;;;;10.53;8.93;;;10.10;73.60;10.30;96157.00;;;;5039189;28;20232;-82
2022/11/28 10:37:04;;;;;;;9.97;7.70;;;10.20;73.20;10.30;96160.00;;;;5045032;28;20283;-82
2022/11/28 10:39:31;;;;;;;10.60;7.80;;;10.20;73.20;10.30;96161.00;;;;5045723;28;20235;-82
2022/11/28 10:42:12;;;;;;;10.60;7.77;;;10.20;73.30;10.40;96154.00;;;;5044814;28;20279;-82
2022/11/28 10:45:11;;;;;;;8.83;7.37;;;10.20;73.40;10.40;96153.00;;;;5043282;28;20204;-83
2022/11/28 10:48:05;;;;;;;10.37;7.40;;;10.30;73.10;10.40;96156.00;;;;5043971;28;20303;-82
2022/11/28 10:50:47;;;;;;;11.93;7.80;;;10.30;72.20;10.40;96165.00;;;;5037193;28;20288;-82
2022/11/28 10:53:41;;;;;;;10.23;7.80;;;10.30;72.60;10.40;96164.00;;;;5041208;28;20205;-82
2022/11/28 10:56:32;;;;;;;8.17;7.10;;;10.30;72.40;10.40;96154.00;;;;5033505;28;20519;-82
2022/11/28 10:59:14;;;;;;;8.40;6.43;;;10.30;72.00;10.40;96155.00;;;;5040210;28;20208;-82
2022/11/28 11:01:42;;;;;;;14.67;7.97;;;10.40;72.10;10.40;96158.00;;;;5043354;28;20215;-82
2022/11/28 11:04:18;;;;;;;9.10;7.07;;;10.40;72.40;10.40;96159.00;;;;5036969;28;20212;-82
2022/11/28 11:07:01;;;;;;;11.90;8.40;;;10.40;72.50;10.50;96164.00;;;;5045602;28;21123;-82
2022/11/28 11:09:29;;;;;;;7.93;6.60;;;10.40;72.10;10.50;96167.00;;;;5038594;28;21183;-81
2022/11/28 11:12:00;;;;;;;8.93;8.03;;;10.40;72.00;10.50;96159.00;;;;5045683;28;20230;-81
2022/11/28 11:14:38;;;;;;;7.47;6.67;;;10.40;71.70;10.50;96161.00;;;;5046184;28;20279;-82
2022/11/28 11:17:07;;;;;;;8.33;6.67;;;10.40;71.50;10.50;96159.00;;;;5045484;28;20670;-83
2022/11/28 11:19:37;;;;;;;8.73;7.00;;;10.50;71.70;10.50;96158.00;;;;5045196;28;20731;-82